createdAt,value
2022-08-09T00:00:21.189Z,99.90
2022-08-09T00:02:49.830Z,99.90
2022-08-09T00:06:18.729Z,99.90
2022-08-09T00:08:10.224Z,99.90
2022-08-09T00:10:41.175Z,99.90
2022-08-09T00:13:17.680Z,99.90
2022-08-09T00:15:58.896Z,99.90
2022-08-09T00:18:31.456Z,99.90
2022-08-09T00:21:04.270Z,99.90
2022-08-09T00:23:55.161Z,99.90
2022-08-09T00:26:18.054Z,99.90
2022-08-09T00:28:52.672Z,99.90
2022-08-09T00:31:57.375Z,99.90
2022-08-09T00:34:10.842Z,99.90
2022-08-09T00:36:38.087Z,99.90
2022-08-09T00:39:17.009Z,99.90
2022-08-09T00:44:14.338Z,99.90
2022-08-09T00:44:43.547Z,99.90
2022-08-09T00:47:15.510Z,99.90
2022-08-09T00:49:52.456Z,99.90
2022-08-09T00:52:22.836Z,99.90
2022-08-09T00:54:58.588Z,99.90
2022-08-09T00:57:35.101Z,99.90
2022-08-09T01:00:20.577Z,99.90
2022-08-09T01:03:06.950Z,99.90
2022-08-09T01:05:53.654Z,99.90
2022-08-09T01:08:28.306Z,99.90
2022-08-09T01:11:16.151Z,99.90
2022-08-09T01:13:59.586Z,99.90
2022-08-09T01:16:40.980Z,99.90
2022-08-09T01:19:42.366Z,99.90
2022-08-09T01:22:51.143Z,99.90
2022-08-09T01:25:48.958Z,99.90
2022-08-09T01:28:20.091Z,99.90
2022-08-09T01:30:53.099Z,99.90
2022-08-09T01:33:25.698Z,99.90
2022-08-09T01:36:06.033Z,99.90
2022-08-09T01:38:40.674Z,99.90
2022-08-09T01:41:26.113Z,99.90
2022-08-09T01:43:58.910Z,99.90
2022-08-09T01:46:30.263Z,99.90
2022-08-09T01:49:10.392Z,99.90
2022-08-09T01:51:44.287Z,99.90
2022-08-09T01:54:13.623Z,99.90
2022-08-09T01:56:51.413Z,99.90
2022-08-09T01:59:23.116Z,99.90
2022-08-09T02:01:59.555Z,99.90
2022-08-09T02:04:30.838Z,99.90
2022-08-09T02:07:17.803Z,99.90
2022-08-09T02:10:10.926Z,99.90
2022-08-09T02:12:39.546Z,99.90
2022-08-09T02:15:11.713Z,99.90
2022-08-09T02:18:00.908Z,99.90
2022-08-09T02:20:41.012Z,99.90
2022-08-09T02:23:25.760Z,99.90
2022-08-09T02:26:01.200Z,99.90
2022-08-09T02:28:40.323Z,99.90
2022-08-09T02:31:21.860Z,99.90
2022-08-09T02:34:06.629Z,99.90
2022-08-09T02:36:42.062Z,99.90
2022-08-09T02:39:19.915Z,99.90
2022-08-09T02:42:05.575Z,99.90
2022-08-09T02:44:40.298Z,99.90
2022-08-09T02:47:12.419Z,99.90
2022-08-09T02:49:45.466Z,99.90
2022-08-09T02:52:16.213Z,99.90
2022-08-09T02:54:53.881Z,99.90
2022-08-09T02:57:23.521Z,99.90
2022-08-09T03:00:20.630Z,99.90
2022-08-09T03:02:57.988Z,99.90
2022-08-09T03:05:26.618Z,99.90
2022-08-09T03:07:55.665Z,99.90
2022-08-09T03:10:24.883Z,99.90
2022-08-09T03:12:53.152Z,99.90
2022-08-09T03:15:22.889Z,99.90
2022-08-09T03:17:53.890Z,99.90
2022-08-09T03:20:29.493Z,99.90
2022-08-09T03:22:58.452Z,99.90
2022-08-09T03:25:59.237Z,99.90
2022-08-09T03:28:30.403Z,99.90
2022-08-09T03:30:58.375Z,99.90
2022-08-09T03:33:54.623Z,99.90
2022-08-09T03:36:15.707Z,99.90
2022-08-09T03:38:43.654Z,99.90
2022-08-09T03:41:15.121Z,99.90
2022-08-09T03:44:04.070Z,99.90
2022-08-09T03:46:31.336Z,99.90
2022-08-09T03:49:04.015Z,99.90
2022-08-09T03:51:57.326Z,99.90
2022-08-09T03:54:29.230Z,99.90
2022-08-09T03:56:59.722Z,99.90
2022-08-09T03:59:53.632Z,99.90
2022-08-09T04:02:14.487Z,99.90
2022-08-09T04:04:45.613Z,99.90
2022-08-09T04:07:14.449Z,99.90
2022-08-09T04:09:47.557Z,99.90
2022-08-09T04:12:40.669Z,99.90
2022-08-09T04:15:17.140Z,99.90
2022-08-09T04:17:51.362Z,99.90
2022-08-09T04:20:19.165Z,99.90
2022-08-09T04:22:46.585Z,99.90
2022-08-09T04:25:13.594Z,99.90
2022-08-09T04:27:41.762Z,99.90
2022-08-09T04:30:13.949Z,99.90
2022-08-09T04:32:45.806Z,99.90
2022-08-09T04:35:14.434Z,99.90
2022-08-09T04:37:45.870Z,99.90
2022-08-09T04:40:19.004Z,99.90
2022-08-09T04:42:56.812Z,99.90
2022-08-09T04:45:23.900Z,99.90
2022-08-09T04:47:59.199Z,99.90
2022-08-09T04:50:33.683Z,99.90
2022-08-09T04:53:13.141Z,99.90
2022-08-09T04:55:58.507Z,99.90
2022-08-09T04:58:32.900Z,99.90
2022-08-09T05:01:02.062Z,99.90
2022-08-09T05:03:40.190Z,99.90
2022-08-09T05:06:27.117Z,99.90
2022-08-09T05:09:00.363Z,99.90
2022-08-09T05:11:32.304Z,99.90
2022-08-09T05:14:06.187Z,99.90
2022-08-09T05:16:58.290Z,99.90
2022-08-09T05:19:24.434Z,99.90
2022-08-09T05:21:56.391Z,99.90
2022-08-09T05:24:24.723Z,99.90
2022-08-09T05:26:52.795Z,99.90
2022-08-09T05:29:21.552Z,99.90
2022-08-09T05:31:56.347Z,99.90
2022-08-09T05:34:30.230Z,99.90
2022-08-09T05:37:06.747Z,99.90
2022-08-09T05:39:43.367Z,99.90
2022-08-09T05:42:17.793Z,99.90
2022-08-09T05:44:52.552Z,99.90
2022-08-09T05:47:21.426Z,99.90
2022-08-09T05:50:28.137Z,99.90
2022-08-09T05:52:36.785Z,99.90
2022-08-09T05:55:08.930Z,99.90
2022-08-09T05:57:55.241Z,99.90
2022-08-09T06:00:25.781Z,99.90
2022-08-09T06:02:54.222Z,99.90
2022-08-09T06:05:30.464Z,99.90
2022-08-09T06:08:08.907Z,99.90
2022-08-09T06:10:38.965Z,99.90
2022-08-09T06:13:12.495Z,99.90
2022-08-09T06:15:46.852Z,99.90
2022-08-09T06:18:15.679Z,99.90
2022-08-09T06:20:43.070Z,99.90
2022-08-09T06:23:21.055Z,99.90
2022-08-09T06:25:49.687Z,99.90
2022-08-09T06:28:22.402Z,99.90
2022-08-09T06:30:54.324Z,99.90
2022-08-09T06:33:39.660Z,99.90
2022-08-09T06:36:08.872Z,99.90
2022-08-09T06:38:37.761Z,99.90
2022-08-09T06:41:09.413Z,99.90
2022-08-09T06:43:46.159Z,99.90
2022-08-09T06:46:39.210Z,99.90
2022-08-09T06:49:00.477Z,99.90
2022-08-09T06:51:27.966Z,99.90
2022-08-09T06:53:55.625Z,99.90
2022-08-09T06:56:31.074Z,99.90
2022-08-09T07:00:52.796Z,99.90
2022-08-09T07:01:54.110Z,99.90
2022-08-09T07:04:27.129Z,99.90
2022-08-09T07:07:00.355Z,99.90
2022-08-09T07:09:55.892Z,99.90
2022-08-09T07:12:18.045Z,99.90
2022-08-09T07:16:39.741Z,99.90
2022-08-09T07:17:56.116Z,99.90
2022-08-09T07:20:23.546Z,99.90
2022-08-09T07:22:54.320Z,99.90
2022-08-09T07:25:21.381Z,99.90
2022-08-09T07:27:53.581Z,99.90
2022-08-09T07:30:24.333Z,99.90
2022-08-09T07:32:51.737Z,99.90
2022-08-09T07:35:19.416Z,99.90
2022-08-09T07:37:48.007Z,99.90
2022-08-09T07:40:20.586Z,99.90
2022-08-09T07:42:59.139Z,99.90
2022-08-09T07:45:39.473Z,99.90
2022-08-09T07:48:22.517Z,99.90
2022-08-09T07:51:09.227Z,99.90
2022-08-09T07:54:06.521Z,99.90
2022-08-09T07:56:33.622Z,99.90
2022-08-09T07:59:01.604Z,99.90
2022-08-09T08:01:33.103Z,99.90
2022-08-09T08:04:01.666Z,99.90
2022-08-09T08:06:32.047Z,99.90
2022-08-09T08:09:04.435Z,99.90
2022-08-09T08:12:10.047Z,99.90
2022-08-09T08:14:18.998Z,99.90
2022-08-09T08:17:00.801Z,99.90
2022-08-09T08:19:34.825Z,99.90
2022-08-09T08:22:02.458Z,99.90
2022-08-09T08:24:39.867Z,99.90
2022-08-09T08:27:16.638Z,99.90
2022-08-09T08:29:50.051Z,99.90
2022-08-09T08:32:24.198Z,99.90
2022-08-09T08:34:58.770Z,99.90
2022-08-09T08:37:41.429Z,99.90
2022-08-09T08:40:16.268Z,99.90
2022-08-09T08:42:47.103Z,99.90
2022-08-09T08:45:16.461Z,99.90
2022-08-09T08:47:45.148Z,99.90
2022-08-09T08:50:18.303Z,99.90
2022-08-09T08:52:59.089Z,99.90
2022-08-09T08:55:27.959Z,99.90
2022-08-09T08:57:57.103Z,99.90
2022-08-09T09:00:30.527Z,99.90
2022-08-09T09:03:08.567Z,99.90
2022-08-09T09:05:59.020Z,99.90
2022-08-09T09:08:40.381Z,99.90
2022-08-09T09:11:08.595Z,99.90
2022-08-09T09:13:57.300Z,99.90
2022-08-09T09:16:34.446Z,99.90
2022-08-09T09:19:40.084Z,99.90
2022-08-09T09:22:07.864Z,99.90
2022-08-09T09:24:47.299Z,99.90
2022-08-09T09:28:06.150Z,99.90
2022-08-09T09:30:35.952Z,99.90
2022-08-09T09:33:14.352Z,99.90
2022-08-09T09:36:02.216Z,99.90
2022-08-09T09:38:47.183Z,99.90
2022-08-09T09:41:39.943Z,99.90
2022-08-09T09:44:27.743Z,99.90
2022-08-09T09:47:04.497Z,99.90
2022-08-09T09:49:50.066Z,99.90
2022-08-09T09:52:37.477Z,99.90
2022-08-09T09:55:16.398Z,99.90
2022-08-09T09:58:17.140Z,99.90
2022-08-09T10:00:52.471Z,99.90
2022-08-09T10:03:44.682Z,99.90
2022-08-09T10:06:23.868Z,99.90
2022-08-09T10:08:58.582Z,99.90
2022-08-09T10:11:59.219Z,99.90
2022-08-09T10:14:32.948Z,99.90
2022-08-09T10:17:39.318Z,99.90
2022-08-09T10:20:00.788Z,99.90
2022-08-09T10:22:36.078Z,99.90
2022-08-09T10:25:12.392Z,99.90
2022-08-09T10:27:55.868Z,99.90
2022-08-09T10:34:07.862Z,99.90
2022-08-09T10:36:00.886Z,99.90
2022-08-09T10:38:55.364Z,99.90
2022-08-09T10:41:17.777Z,99.90
2022-08-09T10:44:01.110Z,99.90
2022-08-09T10:46:28.869Z,99.90
2022-08-09T10:49:21.559Z,99.90
2022-08-09T10:52:20.352Z,99.90
2022-08-09T10:55:18.793Z,99.90
2022-08-09T10:57:45.902Z,99.90
2022-08-09T11:00:56.906Z,99.90
2022-08-09T11:03:50.025Z,99.90
2022-08-09T11:06:19.710Z,99.90
2022-08-09T11:08:51.223Z,99.90
2022-08-09T11:11:22.011Z,99.90
2022-08-09T11:14:28.072Z,99.90
2022-08-09T11:16:57.049Z,99.90
2022-08-09T11:20:10.302Z,99.90
2022-08-09T11:22:43.274Z,99.90
2022-08-09T11:25:12.514Z,99.90
2022-08-09T11:28:02.490Z,99.90
2022-08-09T11:30:36.388Z,99.90
2022-08-09T11:33:25.907Z,99.90
2022-08-09T11:35:58.378Z,99.90
2022-08-09T11:38:32.484Z,99.90
2022-08-09T11:41:12.930Z,99.90
2022-08-09T11:43:48.660Z,99.90
2022-08-09T11:46:26.486Z,99.90
2022-08-09T11:49:05.293Z,99.90
2022-08-09T11:53:04.402Z,99.90
2022-08-09T11:55:51.658Z,99.90
2022-08-09T11:58:14.692Z,99.90
2022-08-09T12:01:09.007Z,99.90
2022-08-09T12:03:57.272Z,99.90
2022-08-09T12:06:32.788Z,99.90
2022-08-09T12:09:06.094Z,99.90
2022-08-09T12:12:03.229Z,99.90
2022-08-09T12:14:37.090Z,99.90
2022-08-09T12:17:27.942Z,99.90
2022-08-09T12:20:00.751Z,99.90
2022-08-09T12:22:29.208Z,99.90
2022-08-09T12:25:37.492Z,99.90
2022-08-09T12:29:11.528Z,99.90
2022-08-09T12:31:01.187Z,99.70
2022-08-09T12:33:50.794Z,99.90
2022-08-09T12:36:31.239Z,99.90
2022-08-09T12:39:00.151Z,99.90
2022-08-09T12:41:30.956Z,98.10
2022-08-09T12:44:06.590Z,99.00
2022-08-09T12:46:36.225Z,99.30
2022-08-09T12:49:03.754Z,98.30
2022-08-09T12:51:52.691Z,98.40
2022-08-09T12:54:17.913Z,98.10
2022-08-09T12:56:53.789Z,98.70
2022-08-09T12:59:24.904Z,97.20
2022-08-09T13:02:11.745Z,96.50
2022-08-09T13:04:42.116Z,96.50
2022-08-09T13:07:11.852Z,95.50
2022-08-09T13:09:41.020Z,96.00
2022-08-09T13:12:10.540Z,95.50
2022-08-09T13:14:44.334Z,96.10
2022-08-09T13:17:43.926Z,95.80
2022-08-09T13:20:17.443Z,96.00
2022-08-09T13:23:04.927Z,95.60
2022-08-09T13:25:53.031Z,95.70
2022-08-09T13:28:33.827Z,95.10
2022-08-09T13:32:14.840Z,93.60
2022-08-09T13:33:57.222Z,93.70
2022-08-09T13:36:41.383Z,95.10
2022-08-09T13:41:17.773Z,95.30
2022-08-09T13:42:12.610Z,94.90
2022-08-09T13:44:42.161Z,95.00
2022-08-09T13:47:33.811Z,93.40
2022-08-09T13:50:17.819Z,93.30
2022-08-09T13:52:46.453Z,93.30
2022-08-09T13:55:17.718Z,93.30
2022-08-09T13:57:55.933Z,93.00
2022-08-09T14:00:28.685Z,92.50
2022-08-09T14:03:57.901Z,92.20
2022-08-09T14:05:56.892Z,92.00
2022-08-09T14:08:29.782Z,91.60
2022-08-09T14:10:57.160Z,91.30
2022-08-09T14:14:15.153Z,91.00
2022-08-09T14:16:17.699Z,90.30
2022-08-09T14:18:49.485Z,90.40
2022-08-09T14:21:20.312Z,90.70
2022-08-09T14:23:55.175Z,90.40
2022-08-09T14:26:32.795Z,90.30
2022-08-09T14:29:02.697Z,90.20
2022-08-09T14:31:50.260Z,90.90
2022-08-09T14:34:30.773Z,90.70
2022-08-09T14:36:59.653Z,90.40
2022-08-09T14:39:46.183Z,90.30
2022-08-09T14:42:13.568Z,90.10
2022-08-09T14:46:57.306Z,90.70
2022-08-09T14:48:06.680Z,90.90
2022-08-09T14:50:36.857Z,90.30
2022-08-09T14:53:11.514Z,90.10
2022-08-09T14:55:50.189Z,90.20
2022-08-09T14:58:18.438Z,90.40
2022-08-09T15:00:48.223Z,90.00
2022-08-09T15:03:20.243Z,90.30
2022-08-09T15:05:52.576Z,90.10
2022-08-09T15:08:30.325Z,90.30
2022-08-09T15:11:00.469Z,89.80
2022-08-09T15:13:28.378Z,88.60
2022-08-09T15:16:14.823Z,88.20
2022-08-09T15:18:42.024Z,88.10
2022-08-09T15:22:00.475Z,88.60
2022-08-09T15:24:09.042Z,87.80
2022-08-09T15:26:45.484Z,88.70
2022-08-09T15:30:48.926Z,88.60
2022-08-09T15:32:02.185Z,89.00
2022-08-09T15:34:34.550Z,89.70
2022-08-09T15:37:04.175Z,87.90
2022-08-09T15:39:43.743Z,89.50
2022-08-09T15:42:19.170Z,88.60
2022-08-09T15:44:46.368Z,86.30
2022-08-09T15:47:14.600Z,86.80
2022-08-09T15:50:03.788Z,86.70
2022-08-09T15:52:32.535Z,88.10
2022-08-09T15:55:00.544Z,87.90
2022-08-09T15:57:34.307Z,88.50
2022-08-09T16:00:11.078Z,89.80
2022-08-09T16:02:43.106Z,90.00
2022-08-09T16:05:22.296Z,89.00
2022-08-09T16:07:50.663Z,88.60
2022-08-09T16:10:38.807Z,90.00
2022-08-09T16:13:20.840Z,90.10
2022-08-09T16:16:10.448Z,90.10
2022-08-09T16:18:44.675Z,89.50
2022-08-09T16:21:17.293Z,90.10
2022-08-09T16:23:55.759Z,90.20
2022-08-09T16:26:33.392Z,90.30
2022-08-09T16:29:10.459Z,90.90
2022-08-09T16:32:19.900Z,90.90
2022-08-09T16:34:53.420Z,90.50
2022-08-09T16:37:20.475Z,90.80
2022-08-09T16:40:08.583Z,90.90
2022-08-09T16:42:36.026Z,90.60
2022-08-09T16:45:04.710Z,91.20
2022-08-09T16:48:41.362Z,90.50
2022-08-09T16:50:29.847Z,90.80
2022-08-09T16:53:01.385Z,90.70
2022-08-09T16:55:31.541Z,90.80
2022-08-09T16:58:16.812Z,91.00
2022-08-09T17:00:44.020Z,91.60
2022-08-09T17:03:21.360Z,91.10
2022-08-09T17:06:06.887Z,90.40
2022-08-09T17:08:43.877Z,90.40
2022-08-09T17:11:15.173Z,90.60
2022-08-09T17:13:45.285Z,90.90
2022-08-09T17:16:12.307Z,91.30
2022-08-09T17:18:39.205Z,91.60
2022-08-09T17:21:06.139Z,92.00
2022-08-09T17:24:21.209Z,92.00
2022-08-09T17:26:29.380Z,92.30
2022-08-09T17:28:59.914Z,92.80
2022-08-09T17:31:26.908Z,93.30
2022-08-09T17:33:56.866Z,93.00
2022-08-09T17:36:25.953Z,93.30
2022-08-09T17:38:57.498Z,93.60
2022-08-09T17:41:38.866Z,93.60
2022-08-09T17:44:38.451Z,94.00
2022-08-09T17:46:55.634Z,94.20
2022-08-09T17:49:24.497Z,94.20
2022-08-09T17:51:51.713Z,94.30
2022-08-09T17:54:19.274Z,94.20
2022-08-09T17:56:52.198Z,94.60
2022-08-09T17:59:19.691Z,94.70
2022-08-09T18:02:06.770Z,94.90
2022-08-09T18:04:33.673Z,95.00
2022-08-09T18:07:04.567Z,95.20
2022-08-09T18:09:40.541Z,95.10
2022-08-09T18:12:20.037Z,95.40
2022-08-09T18:14:54.956Z,95.50
2022-08-09T18:18:02.959Z,95.70
2022-08-09T18:20:55.366Z,95.90
2022-08-09T18:23:05.658Z,96.50
2022-08-09T18:25:50.493Z,96.50
2022-08-09T18:30:36.401Z,96.80
2022-08-09T18:31:12.567Z,97.10
2022-08-09T18:33:40.231Z,97.30
2022-08-09T18:36:08.933Z,97.40
2022-08-09T18:38:41.465Z,97.70
2022-08-09T18:41:08.742Z,97.90
2022-08-09T18:43:36.424Z,98.30
2022-08-09T18:46:47.642Z,98.40
2022-08-09T18:49:06.009Z,98.70
2022-08-09T18:51:38.131Z,98.90
2022-08-09T18:54:29.957Z,99.20
2022-08-09T18:57:05.367Z,99.70
2022-08-09T18:59:49.108Z,99.90
2022-08-09T19:02:19.190Z,99.90
2022-08-09T19:04:47.386Z,99.90
2022-08-09T19:07:16.257Z,99.90
2022-08-09T19:10:13.912Z,99.90
2022-08-09T19:12:32.071Z,99.90
2022-08-09T19:15:04.553Z,99.90
2022-08-09T19:17:47.607Z,99.90
2022-08-09T19:20:23.766Z,99.90
2022-08-09T19:22:54.516Z,99.90
2022-08-09T19:25:42.782Z,99.90
2022-08-09T19:28:13.086Z,99.90
2022-08-09T19:30:44.201Z,99.90
2022-08-09T19:33:19.221Z,99.90
2022-08-09T19:35:56.835Z,99.90
2022-08-09T19:38:26.467Z,99.90
2022-08-09T19:40:53.980Z,99.90
2022-08-09T19:43:57.837Z,99.90
2022-08-09T19:46:14.445Z,99.90
2022-08-09T19:49:02.095Z,99.90
2022-08-09T19:51:31.048Z,99.90
2022-08-09T19:53:59.658Z,99.90
2022-08-09T19:56:28.917Z,99.90
2022-08-09T19:59:40.465Z,99.90
2022-08-09T20:02:03.272Z,99.90
2022-08-09T20:04:37.336Z,99.90
2022-08-09T20:07:15.940Z,99.90
2022-08-09T20:09:48.043Z,99.90
2022-08-09T20:12:30.065Z,99.90
2022-08-09T20:15:04.770Z,99.90
2022-08-09T20:17:54.394Z,99.90
2022-08-09T20:20:22.352Z,99.90
2022-08-09T20:22:51.882Z,99.90
2022-08-09T20:25:23.913Z,99.90
2022-08-09T20:27:52.141Z,99.90
2022-08-09T20:30:23.811Z,99.90
2022-08-09T20:32:52.262Z,99.90
2022-08-09T20:35:21.027Z,99.90
2022-08-09T20:38:20.646Z,99.90
2022-08-09T20:40:35.747Z,99.90
2022-08-09T20:43:17.978Z,99.90
2022-08-09T20:45:58.643Z,99.90
2022-08-09T20:48:31.033Z,99.90
2022-08-09T20:51:03.070Z,99.90
2022-08-09T20:53:37.201Z,99.90
2022-08-09T20:56:20.544Z,99.90
2022-08-09T20:58:57.950Z,99.90
2022-08-09T21:01:35.444Z,99.90
2022-08-09T21:05:54.482Z,99.90
2022-08-09T21:07:12.429Z,99.90
2022-08-09T21:09:56.383Z,99.90
2022-08-09T21:15:14.682Z,99.90
2022-08-09T21:18:10.996Z,99.90
2022-08-09T21:20:31.030Z,99.90
2022-08-09T21:23:00.320Z,99.90
2022-08-09T21:25:55.687Z,99.90
2022-08-09T21:28:33.324Z,99.90
2022-08-09T21:31:17.856Z,99.90
2022-08-09T21:33:50.603Z,99.90
2022-08-09T21:36:19.726Z,99.90
2022-08-09T21:38:50.917Z,99.90
2022-08-09T21:41:25.563Z,99.90
2022-08-09T21:44:11.220Z,99.90
2022-08-09T21:46:38.225Z,99.90
2022-08-09T21:49:05.041Z,99.90
2022-08-09T21:51:36.121Z,99.90
2022-08-09T21:54:10.627Z,99.90
2022-08-09T21:56:54.024Z,99.90
2022-08-09T21:59:25.410Z,99.90
2022-08-09T22:01:59.479Z,99.90
2022-08-09T22:04:44.802Z,99.90
2022-08-09T22:07:35.017Z,99.90
2022-08-09T22:10:05.934Z,99.90
2022-08-09T22:12:32.930Z,99.90
2022-08-09T22:15:00.079Z,99.90
2022-08-09T22:17:28.081Z,99.90
2022-08-09T22:20:00.557Z,99.90
2022-08-09T22:22:29.263Z,99.90
2022-08-09T22:26:08.493Z,99.90
2022-08-09T22:27:43.119Z,99.90
2022-08-09T22:30:10.990Z,99.90
2022-08-09T22:32:38.448Z,99.90
2022-08-09T22:36:02.082Z,99.90
2022-08-09T22:38:03.303Z,99.90
2022-08-09T22:40:35.592Z,99.90
2022-08-09T22:43:16.213Z,99.90
2022-08-09T22:48:18.626Z,99.90
2022-08-09T22:48:35.468Z,99.90
2022-08-09T22:51:10.963Z,99.90
2022-08-09T22:53:58.656Z,99.90
2022-08-09T22:56:34.109Z,99.90
2022-08-09T22:59:55.714Z,99.90
2022-08-09T23:01:52.792Z,99.90
2022-08-09T23:04:20.139Z,99.90
2022-08-09T23:07:11.288Z,99.90
2022-08-09T23:09:39.106Z,99.90
2022-08-09T23:12:06.412Z,99.90
2022-08-09T23:14:41.988Z,99.90
2022-08-09T23:17:10.761Z,99.90
2022-08-09T23:20:06.825Z,99.90
2022-08-09T23:22:24.652Z,99.90
2022-08-09T23:24:51.631Z,99.90
2022-08-09T23:27:18.561Z,99.90
2022-08-09T23:29:45.486Z,99.90
2022-08-09T23:32:12.771Z,99.90
2022-08-09T23:34:39.548Z,99.90
2022-08-09T23:37:06.762Z,99.90
2022-08-09T23:39:33.725Z,99.90
2022-08-09T23:42:00.659Z,99.90
2022-08-09T23:44:27.589Z,99.90
2022-08-09T23:46:57.281Z,99.90
2022-08-09T23:49:25.550Z,99.90
2022-08-09T23:51:53.703Z,99.90
2022-08-09T23:54:21.815Z,99.90
2022-08-09T23:56:56.397Z,99.90
2022-08-09T23:59:25.984Z,99.90
